sensor_id;sensor_type;location;lat;lon;timestamp;temperature;humidity
64869;DHT22;51349;52.424;10.840;2024-01-15T00:01:56;1.20;99.90
64869;DHT22;51349;52.424;10.840;2024-01-15T00:06:57;1.10;99.90
64869;DHT22;51349;52.424;10.840;2024-01-15T00:11:58;1.10;99.90
64869;DHT22;51349;52.424;10.840;2024-01-15T00:16:59;1.10;99.90
64869;DHT22;51349;52.424;10.840;2024-01-15T00:22:00;1.10;99.90
64869;DHT22;51349;52.424;10.840;2024-01-15T00:27:01;1.10;99.90
64869;DHT22;51349;52.424;10.840;2024-01-15T00:32:01;1.20;99.90
64869;DHT22;51349;52.424;10.840;2024-01-15T00:37:02;1.20;99.90
64869;DHT22;51349;52.424;10.840;2024-01-15T00:42:04;1.20;99.90
64869;DHT22;51349;52.424;10.840;2024-01-15T00:47:05;1.30;99.90
64869;DHT22;51349;52.424;10.840;2024-01-15T00:52:06;1.40;99.90
64869;DHT22;51349;52.424;10.840;2024-01-15T00:57:06;1.40;99.90
64869;DHT22;51349;52.424;10.840;2024-01-15T01:02:07;1.30;99.90
64869;DHT22;51349;52.424;10.840;2024-01-15T01:07:08;1.30;99.90
64869;DHT22;51349;52.424;10.840;2024-01-15T01:12:09;1.30;99.90
64869;DHT22;51349;52.424;10.840;2024-01-15T01:17:09;1.20;99.90
64869;DHT22;51349;52.424;10.840;2024-01-15T01:22:10;1.20;99.90
64869;DHT22;51349;52.424;10.840;2024-01-15T01:27:11;1.20;99.90
64869;DHT22;51349;52.424;10.840;2024-01-15T01:32:12;1.30;99.90
64869;DHT22;51349;52.424;10.840;2024-01-15T01:37:13;1.30;99.90
64869;DHT22;51349;52.424;10.840;2024-01-15T01:42:15;1.30;99.90
64869;DHT22;51349;52.424;10.840;2024-01-15T01:47:16;1.30;99.90
64869;DHT22;51349;52.424;10.840;2024-01-15T01:52:17;1.30;99.90
64869;DHT22;51349;52.424;10.840;2024-01-15T01:57:18;1.30;99.90
64869;DHT22;51349;52.424;10.840;2024-01-15T02:02:20;1.30;99.90
64869;DHT22;51349;52.424;10.840;2024-01-15T02:07:21;1.40;99.90
64869;DHT22;51349;52.424;10.840;2024-01-15T02:12:23;1.40;99.90
64869;DHT22;51349;52.424;10.840;2024-01-15T02:17:24;1.40;99.90
64869;DHT22;51349;52.424;10.840;2024-01-15T02:22:24;1.40;99.90
64869;DHT22;51349;52.424;10.840;2024-01-15T02:27:25;1.40;99.90
64869;DHT22;51349;52.424;10.840;2024-01-15T02:32:26;1.40;99.90
64869;DHT22;51349;52.424;10.840;2024-01-15T02:37:27;1.40;99.90
64869;DHT22;51349;52.424;10.840;2024-01-15T02:42:27;1.40;99.90
64869;DHT22;51349;52.424;10.840;2024-01-15T02:47:28;1.40;99.90
64869;DHT22;51349;52.424;10.840;2024-01-15T02:52:29;1.40;99.90
64869;DHT22;51349;52.424;10.840;2024-01-15T02:57:30;1.50;99.90
64869;DHT22;51349;52.424;10.840;2024-01-15T03:02:31;1.60;99.90
64869;DHT22;51349;52.424;10.840;2024-01-15T03:07:34;1.60;99.90
64869;DHT22;51349;52.424;10.840;2024-01-15T03:12:35;1.60;99.90
64869;DHT22;51349;52.424;10.840;2024-01-15T03:17:36;1.70;99.90
64869;DHT22;51349;52.424;10.840;2024-01-15T03:22:37;1.70;99.90
64869;DHT22;51349;52.424;10.840;2024-01-15T03:27:38;1.60;99.90
64869;DHT22;51349;52.424;10.840;2024-01-15T03:32:38;1.50;99.90
64869;DHT22;51349;52.424;10.840;2024-01-15T03:37:39;1.40;99.90
64869;DHT22;51349;52.424;10.840;2024-01-15T03:42:40;1.50;99.90
64869;DHT22;51349;52.424;10.840;2024-01-15T03:47:41;1.50;99.90
64869;DHT22;51349;52.424;10.840;2024-01-15T03:52:41;1.60;99.90
64869;DHT22;51349;52.424;10.840;2024-01-15T03:57:42;1.70;99.90
64869;DHT22;51349;52.424;10.840;2024-01-15T04:02:43;1.70;99.90
64869;DHT22;51349;52.424;10.840;2024-01-15T04:07:45;1.70;99.90
64869;DHT22;51349;52.424;10.840;2024-01-15T04:12:45;1.60;99.90
64869;DHT22;51349;52.424;10.840;2024-01-15T04:17:49;1.60;99.90
64869;DHT22;51349;52.424;10.840;2024-01-15T04:22:49;1.70;99.90
64869;DHT22;51349;52.424;10.840;2024-01-15T04:27:50;1.70;99.90
64869;DHT22;51349;52.424;10.840;2024-01-15T04:32:51;1.80;99.90
64869;DHT22;51349;52.424;10.840;2024-01-15T04:37:52;1.80;99.90
64869;DHT22;51349;52.424;10.840;2024-01-15T04:42:54;1.70;99.90
64869;DHT22;51349;52.424;10.840;2024-01-15T04:47:55;1.60;99.90
64869;DHT22;51349;52.424;10.840;2024-01-15T04:52:58;1.50;99.90
64869;DHT22;51349;52.424;10.840;2024-01-15T04:57:59;1.30;99.90
64869;DHT22;51349;52.424;10.840;2024-01-15T05:03:00;1.30;99.90
64869;DHT22;51349;52.424;10.840;2024-01-15T05:08:00;1.30;99.90
64869;DHT22;51349;52.424;10.840;2024-01-15T05:13:01;1.40;99.90
64869;DHT22;51349;52.424;10.840;2024-01-15T05:18:02;1.50;99.90
64869;DHT22;51349;52.424;10.840;2024-01-15T05:23:03;1.50;99.90
64869;DHT22;51349;52.424;10.840;2024-01-15T05:28:05;1.50;99.90
64869;DHT22;51349;52.424;10.840;2024-01-15T05:33:06;1.50;99.90
64869;DHT22;51349;52.424;10.840;2024-01-15T05:38:07;1.60;99.90
64869;DHT22;51349;52.424;10.840;2024-01-15T05:43:08;1.70;99.90
64869;DHT22;51349;52.424;10.840;2024-01-15T05:48:09;1.60;99.90
64869;DHT22;51349;52.424;10.840;2024-01-15T05:53:10;1.70;99.90
64869;DHT22;51349;52.424;10.840;2024-01-15T05:58:10;1.40;99.90
64869;DHT22;51349;52.424;10.840;2024-01-15T06:03:11;1.10;99.90
64869;DHT22;51349;52.424;10.840;2024-01-15T06:08:12;1.20;99.90
64869;DHT22;51349;52.424;10.840;2024-01-15T06:13:15;1.10;99.90
64869;DHT22;51349;52.424;10.840;2024-01-15T06:18:15;1.20;99.90
64869;DHT22;51349;52.424;10.840;2024-01-15T06:23:16;1.20;99.90
64869;DHT22;51349;52.424;10.840;2024-01-15T06:28:17;1.30;99.90
64869;DHT22;51349;52.424;10.840;2024-01-15T06:33:18;1.40;99.90
64869;DHT22;51349;52.424;10.840;2024-01-15T06:38:18;1.40;99.90
64869;DHT22;51349;52.424;10.840;2024-01-15T06:43:19;1.50;99.90
64869;DHT22;51349;52.424;10.840;2024-01-15T06:48:20;1.40;99.90
64869;DHT22;51349;52.424;10.840;2024-01-15T06:53:21;1.40;99.90
64869;DHT22;51349;52.424;10.840;2024-01-15T06:58:22;1.50;99.90
64869;DHT22;51349;52.424;10.840;2024-01-15T07:03:23;1.50;99.90
64869;DHT22;51349;52.424;10.840;2024-01-15T07:08:24;1.40;99.90
64869;DHT22;51349;52.424;10.840;2024-01-15T07:13:24;1.30;99.90
64869;DHT22;51349;52.424;10.840;2024-01-15T07:18:26;1.30;99.90
64869;DHT22;51349;52.424;10.840;2024-01-15T07:23:48;1.20;99.90
64869;DHT22;51349;52.424;10.840;2024-01-15T07:29:02;1.20;99.90
64869;DHT22;51349;52.424;10.840;2024-01-15T07:34:04;1.10;99.90
64869;DHT22;51349;52.424;10.840;2024-01-15T07:39:08;1.20;99.90
64869;DHT22;51349;52.424;10.840;2024-01-15T07:44:09;1.20;99.90
64869;DHT22;51349;52.424;10.840;2024-01-15T07:49:11;1.30;99.90
64869;DHT22;51349;52.424;10.840;2024-01-15T07:54:14;1.30;99.90
64869;DHT22;51349;52.424;10.840;2024-01-15T07:59:18;1.40;99.90
64869;DHT22;51349;52.424;10.840;2024-01-15T08:04:20;1.40;99.90
64869;DHT22;51349;52.424;10.840;2024-01-15T08:09:21;1.40;99.90
64869;DHT22;51349;52.424;10.840;2024-01-15T08:14:22;1.40;99.90
64869;DHT22;51349;52.424;10.840;2024-01-15T08:19:24;1.40;99.90
64869;DHT22;51349;52.424;10.840;2024-01-15T08:24:30;1.40;99.90
64869;DHT22;51349;52.424;10.840;2024-01-15T08:29:32;1.40;99.90
64869;DHT22;51349;52.424;10.840;2024-01-15T08:34:35;1.50;99.90
64869;DHT22;51349;52.424;10.840;2024-01-15T08:39:39;1.50;99.90
64869;DHT22;51349;52.424;10.840;2024-01-15T08:44:40;1.50;99.90
64869;DHT22;51349;52.424;10.840;2024-01-15T08:49:43;1.50;99.90
64869;DHT22;51349;52.424;10.840;2024-01-15T08:54:45;1.50;99.90
64869;DHT22;51349;52.424;10.840;2024-01-15T08:59:46;1.60;99.90
64869;DHT22;51349;52.424;10.840;2024-01-15T09:04:47;1.70;99.90
64869;DHT22;51349;52.424;10.840;2024-01-15T09:09:48;1.60;99.90
64869;DHT22;51349;52.424;10.840;2024-01-15T09:14:49;1.60;99.90
64869;DHT22;51349;52.424;10.840;2024-01-15T09:19:51;1.50;99.90
64869;DHT22;51349;52.424;10.840;2024-01-15T09:24:58;1.50;99.90
64869;DHT22;51349;52.424;10.840;2024-01-15T09:29:59;1.40;99.90
64869;DHT22;51349;52.424;10.840;2024-01-15T09:35:00;1.10;99.90
64869;DHT22;51349;52.424;10.840;2024-01-15T09:40:01;1.10;99.90
64869;DHT22;51349;52.424;10.840;2024-01-15T09:45:03;1.20;99.90
64869;DHT22;51349;52.424;10.840;2024-01-15T09:50:04;1.20;99.90
64869;DHT22;51349;52.424;10.840;2024-01-15T09:55:06;1.20;99.90
64869;DHT22;51349;52.424;10.840;2024-01-15T10:00:09;1.20;99.90
64869;DHT22;51349;52.424;10.840;2024-01-15T10:05:11;1.30;99.90
64869;DHT22;51349;52.424;10.840;2024-01-15T10:10:12;1.40;99.90
64869;DHT22;51349;52.424;10.840;2024-01-15T10:15:13;1.30;99.90
64869;DHT22;51349;52.424;10.840;2024-01-15T10:20:14;1.20;99.90
64869;DHT22;51349;52.424;10.840;2024-01-15T10:25:15;1.20;99.90
64869;DHT22;51349;52.424;10.840;2024-01-15T10:30:17;1.40;99.90
64869;DHT22;51349;52.424;10.840;2024-01-15T10:35:21;1.50;99.90
64869;DHT22;51349;52.424;10.840;2024-01-15T10:40:23;1.60;99.90
64869;DHT22;51349;52.424;10.840;2024-01-15T10:45:24;1.80;99.90
64869;DHT22;51349;52.424;10.840;2024-01-15T10:50:25;1.90;99.90
64869;DHT22;51349;52.424;10.840;2024-01-15T10:55:26;2.00;99.90
64869;DHT22;51349;52.424;10.840;2024-01-15T11:00:28;1.90;99.90
64869;DHT22;51349;52.424;10.840;2024-01-15T11:05:29;1.90;99.90
64869;DHT22;51349;52.424;10.840;2024-01-15T11:10:43;1.90;99.90
64869;DHT22;51349;52.424;10.840;2024-01-15T11:26:35;1.90;99.90
64869;DHT22;51349;52.424;10.840;2024-01-15T11:41:50;2.00;99.90
64869;DHT22;51349;52.424;10.840;2024-01-15T11:46:59;2.10;99.90
64869;DHT22;51349;52.424;10.840;2024-01-15T11:52:02;2.00;99.90
64869;DHT22;51349;52.424;10.840;2024-01-15T11:57:09;2.10;99.90
64869;DHT22;51349;52.424;10.840;2024-01-15T12:02:10;2.00;99.90
64869;DHT22;51349;52.424;10.840;2024-01-15T12:07:13;2.00;99.90
64869;DHT22;51349;52.424;10.840;2024-01-15T12:18:00;2.00;99.90
64869;DHT22;51349;52.424;10.840;2024-01-15T12:23:03;1.90;99.90
64869;DHT22;51349;52.424;10.840;2024-01-15T12:28:05;1.90;99.90
64869;DHT22;51349;52.424;10.840;2024-01-15T12:33:07;2.00;99.90
64869;DHT22;51349;52.424;10.840;2024-01-15T12:38:10;1.90;99.90
64869;DHT22;51349;52.424;10.840;2024-01-15T12:43:12;1.90;99.90
64869;DHT22;51349;52.424;10.840;2024-01-15T12:48:13;1.80;99.90
64869;DHT22;51349;52.424;10.840;2024-01-15T12:53:31;1.70;99.90
64869;DHT22;51349;52.424;10.840;2024-01-15T12:58:43;1.80;99.90
64869;DHT22;51349;52.424;10.840;2024-01-15T13:03:45;1.90;99.90
64869;DHT22;51349;52.424;10.840;2024-01-15T13:08:45;2.00;99.90
64869;DHT22;51349;52.424;10.840;2024-01-15T13:13:47;2.10;99.90
64869;DHT22;51349;52.424;10.840;2024-01-15T13:18:48;2.20;99.90
64869;DHT22;51349;52.424;10.840;2024-01-15T13:23:53;2.20;99.90
64869;DHT22;51349;52.424;10.840;2024-01-15T13:28:54;2.20;99.90
64869;DHT22;51349;52.424;10.840;2024-01-15T13:33:58;2.10;99.90
64869;DHT22;51349;52.424;10.840;2024-01-15T13:39:00;2.00;99.90
64869;DHT22;51349;52.424;10.840;2024-01-15T13:44:10;1.90;99.90
64869;DHT22;51349;52.424;10.840;2024-01-15T13:49:13;1.80;99.90
64869;DHT22;51349;52.424;10.840;2024-01-15T13:54:15;1.70;99.90
64869;DHT22;51349;52.424;10.840;2024-01-15T13:59:16;1.80;99.90
64869;DHT22;51349;52.424;10.840;2024-01-15T14:04:20;1.80;99.90
64869;DHT22;51349;52.424;10.840;2024-01-15T14:09:33;1.70;99.90
64869;DHT22;51349;52.424;10.840;2024-01-15T14:14:34;1.50;99.90
64869;DHT22;51349;52.424;10.840;2024-01-15T14:19:40;1.40;99.90
64869;DHT22;51349;52.424;10.840;2024-01-15T14:24:48;1.40;99.90
64869;DHT22;51349;52.424;10.840;2024-01-15T14:29:49;1.50;99.90
64869;DHT22;51349;52.424;10.840;2024-01-15T14:35:01;1.50;99.90
64869;DHT22;51349;52.424;10.840;2024-01-15T14:40:08;1.60;99.90
64869;DHT22;51349;52.424;10.840;2024-01-15T14:45:10;1.50;99.90
64869;DHT22;51349;52.424;10.840;2024-01-15T14:50:14;1.40;99.90
64869;DHT22;51349;52.424;10.840;2024-01-15T14:55:18;1.30;99.90
64869;DHT22;51349;52.424;10.840;2024-01-15T15:00:19;1.20;99.90
64869;DHT22;51349;52.424;10.840;2024-01-15T15:05:22;1.20;99.90
64869;DHT22;51349;52.424;10.840;2024-01-15T15:10:23;1.20;99.90
64869;DHT22;51349;52.424;10.840;2024-01-15T15:15:37;1.20;99.90
64869;DHT22;51349;52.424;10.840;2024-01-15T15:21:07;1.10;99.90
64869;DHT22;51349;52.424;10.840;2024-01-15T15:26:08;1.10;99.90
64869;DHT22;51349;52.424;10.840;2024-01-15T15:31:09;1.10;99.90
64869;DHT22;51349;52.424;10.840;2024-01-15T15:36:14;1.10;99.90
64869;DHT22;51349;52.424;10.840;2024-01-15T15:41:16;1.10;99.90
64869;DHT22;51349;52.424;10.840;2024-01-15T15:46:22;1.10;99.90
64869;DHT22;51349;52.424;10.840;2024-01-15T15:51:24;1.10;99.90
64869;DHT22;51349;52.424;10.840;2024-01-15T15:56:33;1.10;99.90
64869;DHT22;51349;52.424;10.840;2024-01-15T16:01:42;1.10;99.90
64869;DHT22;51349;52.424;10.840;2024-01-15T16:06:44;1.00;99.90
64869;DHT22;51349;52.424;10.840;2024-01-15T16:11:54;1.00;99.90
64869;DHT22;51349;52.424;10.840;2024-01-15T16:17:03;1.00;99.90
64869;DHT22;51349;52.424;10.840;2024-01-15T16:22:05;1.00;99.90
64869;DHT22;51349;52.424;10.840;2024-01-15T16:27:06;1.00;99.90
64869;DHT22;51349;52.424;10.840;2024-01-15T16:32:10;0.90;99.90
64869;DHT22;51349;52.424;10.840;2024-01-15T16:37:21;0.90;99.90
64869;DHT22;51349;52.424;10.840;2024-01-15T16:42:26;0.90;99.90
64869;DHT22;51349;52.424;10.840;2024-01-15T16:47:30;0.90;99.90
64869;DHT22;51349;52.424;10.840;2024-01-15T16:52:31;0.90;99.90
64869;DHT22;51349;52.424;10.840;2024-01-15T16:57:40;0.90;99.90
64869;DHT22;51349;52.424;10.840;2024-01-15T17:02:42;0.90;99.90
64869;DHT22;51349;52.424;10.840;2024-01-15T17:07:43;0.90;99.90
64869;DHT22;51349;52.424;10.840;2024-01-15T17:12:44;1.00;99.90
64869;DHT22;51349;52.424;10.840;2024-01-15T17:17:45;1.00;99.90
64869;DHT22;51349;52.424;10.840;2024-01-15T17:22:49;1.00;99.90
64869;DHT22;51349;52.424;10.840;2024-01-15T17:27:49;1.00;99.90
64869;DHT22;51349;52.424;10.840;2024-01-15T17:32:50;1.00;99.90
64869;DHT22;51349;52.424;10.840;2024-01-15T17:37:51;1.00;99.90
64869;DHT22;51349;52.424;10.840;2024-01-15T17:42:51;1.00;99.90
64869;DHT22;51349;52.424;10.840;2024-01-15T17:47:52;1.00;99.90
64869;DHT22;51349;52.424;10.840;2024-01-15T17:52:53;1.10;99.90
64869;DHT22;51349;52.424;10.840;2024-01-15T17:57:54;1.10;99.90
64869;DHT22;51349;52.424;10.840;2024-01-15T18:02:55;1.10;99.90
64869;DHT22;51349;52.424;10.840;2024-01-15T18:07:56;1.10;99.90
64869;DHT22;51349;52.424;10.840;2024-01-15T18:12:57;1.00;99.90
64869;DHT22;51349;52.424;10.840;2024-01-15T18:17:58;1.00;99.90
64869;DHT22;51349;52.424;10.840;2024-01-15T18:22:59;1.00;99.90
64869;DHT22;51349;52.424;10.840;2024-01-15T18:28:00;1.00;99.90
64869;DHT22;51349;52.424;10.840;2024-01-15T18:33:01;1.00;99.90
64869;DHT22;51349;52.424;10.840;2024-01-15T18:38:01;1.00;99.90
64869;DHT22;51349;52.424;10.840;2024-01-15T18:43:02;1.00;99.90
64869;DHT22;51349;52.424;10.840;2024-01-15T18:48:03;1.00;99.90
64869;DHT22;51349;52.424;10.840;2024-01-15T18:53:04;1.00;99.90
64869;DHT22;51349;52.424;10.840;2024-01-15T18:58:05;1.00;99.90
64869;DHT22;51349;52.424;10.840;2024-01-15T19:03:06;1.00;99.90
64869;DHT22;51349;52.424;10.840;2024-01-15T19:08:07;1.00;99.90
64869;DHT22;51349;52.424;10.840;2024-01-15T19:13:07;0.90;99.90
64869;DHT22;51349;52.424;10.840;2024-01-15T19:18:10;0.80;99.90
64869;DHT22;51349;52.424;10.840;2024-01-15T19:23:11;0.70;99.90
64869;DHT22;51349;52.424;10.840;2024-01-15T19:28:14;0.60;99.90
64869;DHT22;51349;52.424;10.840;2024-01-15T19:33:16;0.50;99.90
64869;DHT22;51349;52.424;10.840;2024-01-15T19:38:17;0.50;99.90
64869;DHT22;51349;52.424;10.840;2024-01-15T19:43:17;0.50;99.90
64869;DHT22;51349;52.424;10.840;2024-01-15T19:48:18;0.50;99.90
64869;DHT22;51349;52.424;10.840;2024-01-15T19:53:20;0.50;99.90
64869;DHT22;51349;52.424;10.840;2024-01-15T19:58:21;0.50;99.90
64869;DHT22;51349;52.424;10.840;2024-01-15T20:03:22;0.50;99.90
64869;DHT22;51349;52.424;10.840;2024-01-15T20:08:23;0.40;99.90
64869;DHT22;51349;52.424;10.840;2024-01-15T20:13:25;0.50;99.90
64869;DHT22;51349;52.424;10.840;2024-01-15T20:18:26;0.60;99.90
64869;DHT22;51349;52.424;10.840;2024-01-15T20:23:27;0.60;99.90
64869;DHT22;51349;52.424;10.840;2024-01-15T20:28:27;0.60;99.90
64869;DHT22;51349;52.424;10.840;2024-01-15T20:33:29;0.70;99.90
64869;DHT22;51349;52.424;10.840;2024-01-15T20:38:31;0.70;99.90
64869;DHT22;51349;52.424;10.840;2024-01-15T20:43:32;0.70;99.90
64869;DHT22;51349;52.424;10.840;2024-01-15T20:48:34;0.60;99.90
64869;DHT22;51349;52.424;10.840;2024-01-15T20:53:35;0.70;99.90
64869;DHT22;51349;52.424;10.840;2024-01-15T20:58:35;0.70;99.90
64869;DHT22;51349;52.424;10.840;2024-01-15T21:03:37;0.60;99.90
64869;DHT22;51349;52.424;10.840;2024-01-15T21:08:39;0.60;99.90
64869;DHT22;51349;52.424;10.840;2024-01-15T21:13:41;0.70;99.90
64869;DHT22;51349;52.424;10.840;2024-01-15T21:18:42;0.70;99.90
64869;DHT22;51349;52.424;10.840;2024-01-15T21:23:42;0.70;99.90
64869;DHT22;51349;52.424;10.840;2024-01-15T21:28:44;0.70;99.90
64869;DHT22;51349;52.424;10.840;2024-01-15T21:33:45;0.70;99.90
64869;DHT22;51349;52.424;10.840;2024-01-15T21:38:46;0.70;99.90
64869;DHT22;51349;52.424;10.840;2024-01-15T21:43:47;0.70;99.90
64869;DHT22;51349;52.424;10.840;2024-01-15T21:48:47;0.70;99.90
64869;DHT22;51349;52.424;10.840;2024-01-15T21:53:48;0.70;99.90
64869;DHT22;51349;52.424;10.840;2024-01-15T21:58:49;0.70;99.90
64869;DHT22;51349;52.424;10.840;2024-01-15T22:03:50;0.70;99.90
64869;DHT22;51349;52.424;10.840;2024-01-15T22:08:53;0.70;99.90
64869;DHT22;51349;52.424;10.840;2024-01-15T22:13:53;0.80;99.90
64869;DHT22;51349;52.424;10.840;2024-01-15T22:18:54;0.70;99.90
64869;DHT22;51349;52.424;10.840;2024-01-15T22:23:55;0.70;99.90
64869;DHT22;51349;52.424;10.840;2024-01-15T22:28:56;0.70;99.90
64869;DHT22;51349;52.424;10.840;2024-01-15T22:33:57;0.70;99.90
64869;DHT22;51349;52.424;10.840;2024-01-15T22:38:58;0.80;99.90
64869;DHT22;51349;52.424;10.840;2024-01-15T22:43:58;0.80;99.90
64869;DHT22;51349;52.424;10.840;2024-01-15T22:48:59;0.80;99.90
64869;DHT22;51349;52.424;10.840;2024-01-15T22:54:00;0.70;99.90
64869;DHT22;51349;52.424;10.840;2024-01-15T22:59:01;0.80;99.90
64869;DHT22;51349;52.424;10.840;2024-01-15T23:04:01;0.80;99.90
64869;DHT22;51349;52.424;10.840;2024-01-15T23:09:02;0.80;99.90
64869;DHT22;51349;52.424;10.840;2024-01-15T23:14:03;0.80;99.90
64869;DHT22;51349;52.424;10.840;2024-01-15T23:19:04;0.80;99.90
64869;DHT22;51349;52.424;10.840;2024-01-15T23:24:06;0.80;99.90
64869;DHT22;51349;52.424;10.840;2024-01-15T23:29:06;0.80;99.90
64869;DHT22;51349;52.424;10.840;2024-01-15T23:34:07;0.80;99.90
64869;DHT22;51349;52.424;10.840;2024-01-15T23:39:09;0.80;99.90
64869;DHT22;51349;52.424;10.840;2024-01-15T23:44:11;0.80;99.90
64869;DHT22;51349;52.424;10.840;2024-01-15T23:49:12;0.80;99.90
64869;DHT22;51349;52.424;10.840;2024-01-15T23:54:14;0.80;99.90
64869;DHT22;51349;52.424;10.840;2024-01-15T23:59:15;0.80;99.90
